Time;durP1;ratioP1;P1;durP2;ratioP2;P2;SDS_P1;SDS_P2;PMS_P1;PMS_P2;Temp;Humidity;BMP_temperature;BMP_pressure;BME280_temperature;BME280_humidity;BME280_pressure;Samples;Min_cycle;Max_cycle;Signal;HPM_P1;HPM_P2
2021/03/28 00:02:27;;;;;;;15.47;2.83;;;;;;;;;;5075043;28;20074;-79
2021/03/28 00:04:54;;;;;;;24.83;3.30;;;;;;;;;;5073862;28;20423;-79
2021/03/28 00:07:20;;;;;;;21.77;3.07;;;;;;;;;;5075015;28;20486;-79
2021/03/28 00:09:51;;;;;;;20.17;3.30;;;;;;;;;;5073695;28;20073;-79
2021/03/28 00:12:34;;;;;;;16.27;3.13;;;;;;;;;;5073460;28;20384;-79
2021/03/28 00:14:59;;;;;;;18.20;3.35;;;;;;;;;;5062179;28;20364;-79
2021/03/28 00:17:47;;;;;;;16.98;3.06;;;;;;;;;;5073639;28;20035;-79
2021/03/28 00:20:15;;;;;;;16.80;3.20;;;;;;;;;;5071907;28;20036;-79
2021/03/28 00:22:47;;;;;;;13.40;3.60;;;;;;;;;;5074643;28;20028;-79
2021/03/28 00:25:17;;;;;;;16.10;3.33;;;;;;;;;;5074895;28;20023;-79
2021/03/28 00:27:46;;;;;;;15.13;2.80;;;;;;;;;;5072616;28;20170;-79
2021/03/28 00:30:15;;;;;;;17.07;2.63;;;;;;;;;;5068425;28;20097;-79
2021/03/28 00:32:42;;;;;;;14.93;4.03;;;;;;;;;;5073418;28;20020;-79
2021/03/28 00:35:09;;;;;;;16.63;3.30;;;;;;;;;;5073051;28;20036;-79
2021/03/28 00:37:35;;;;;;;28.43;2.87;;;;;;;;;;5073164;28;20062;-79
2021/03/28 00:40:12;;;;;;;13.27;2.67;;;;;;;;;;5073130;28;20471;-79
2021/03/28 00:42:39;;;;;;;13.53;3.30;;;;;;;;;;5074427;28;20028;-79
2021/03/28 00:45:22;;;;;;;16.27;3.40;;;;;;;;;;5072954;28;20481;-79
2021/03/28 00:48:08;;;;;;;19.63;3.20;;;;;;;;;;5062114;28;20039;-79
2021/03/28 00:50:36;;;;;;;17.67;3.00;;;;;;;;;;5073704;28;20036;-79
2021/03/28 00:53:03;;;;;;;12.03;3.40;;;;;;;;;;5074041;28;20349;-79
2021/03/28 00:55:30;;;;;;;14.07;3.03;;;;;;;;;;5072672;28;20013;-79
2021/03/28 00:57:58;;;;;;;19.33;3.10;;;;;;;;;;5072454;28;20044;-79
2021/03/28 01:00:42;;;;;;;14.43;3.43;;;;;;;;;;5072804;28;20092;-79
2021/03/28 01:03:30;;;;;;;17.37;3.23;;;;;;;;;;5072615;28;20028;-79
2021/03/28 01:05:57;;;;;;;19.10;3.07;;;;;;;;;;5072610;28;20016;-79
2021/03/28 01:08:29;;;;;;;17.27;3.13;;;;;;;;;;5072498;28;20024;-79
2021/03/28 01:11:13;;;;;;;14.10;3.00;;;;;;;;;;5072397;28;20020;-79
2021/03/28 01:13:51;;;;;;;18.70;3.50;;;;;;;;;;5072399;28;20024;-79
2021/03/28 01:16:16;;;;;;;15.57;3.30;;;;;;;;;;5072212;28;20515;-79
2021/03/28 01:19:00;;;;;;;18.47;3.43;;;;;;;;;;5072194;28;20023;-79
2021/03/28 01:21:44;;;;;;;10.60;3.13;;;;;;;;;;5073239;28;20024;-79
2021/03/28 01:24:17;;;;;;;12.97;3.13;;;;;;;;;;5072169;28;20472;-80
2021/03/28 01:26:57;;;;;;;19.80;3.90;;;;;;;;;;5073302;28;20460;-79
2021/03/28 01:29:29;;;;;;;17.07;3.30;;;;;;;;;;5073283;28;20077;-79
2021/03/28 01:31:57;;;;;;;21.77;2.93;;;;;;;;;;5072683;28;20126;-79
2021/03/28 01:34:25;;;;;;;17.13;3.63;;;;;;;;;;5073135;28;20464;-79
2021/03/28 01:37:10;;;;;;;18.13;3.40;;;;;;;;;;5072875;28;20028;-79
2021/03/28 01:39:39;;;;;;;13.07;2.90;;;;;;;;;;5073178;28;20024;-79
2021/03/28 01:42:17;;;;;;;14.27;3.27;;;;;;;;;;5071668;28;20020;-79
2021/03/28 01:44:47;;;;;;;15.43;3.20;;;;;;;;;;5073064;28;20036;-79
2021/03/28 01:47:19;;;;;;;13.87;2.80;;;;;;;;;;5072588;28;20056;-79
2021/03/28 01:49:57;;;;;;;15.77;3.17;;;;;;;;;;5073033;28;20439;-80
2021/03/28 01:52:28;;;;;;;14.90;2.40;;;;;;;;;;5072851;28;20124;-79
2021/03/28 01:54:59;;;;;;;15.13;2.73;;;;;;;;;;5071641;28;20020;-79
2021/03/28 01:57:30;;;;;;;13.80;2.83;;;;;;;;;;5072757;28;20020;-79
2021/03/28 02:00:07;;;;;;;16.33;2.67;;;;;;;;;;5071280;28;20016;-79
2021/03/28 02:02:40;;;;;;;10.57;2.80;;;;;;;;;;5072696;28;20074;-79
2021/03/28 02:05:12;;;;;;;20.53;3.17;;;;;;;;;;5072482;28;20025;-79
2021/03/28 02:07:46;;;;;;;10.63;2.60;;;;;;;;;;5072599;28;20099;-79
2021/03/28 02:10:26;;;;;;;21.33;3.03;;;;;;;;;;5070683;28;20032;-79
2021/03/28 02:13:11;;;;;;;15.67;2.47;;;;;;;;;;5071120;28;20073;-79
2021/03/28 02:16:02;;;;;;;14.90;2.50;;;;;;;;;;5072814;28;20484;-79
2021/03/28 02:18:47;;;;;;;19.00;2.40;;;;;;;;;;5072682;28;20012;-79
2021/03/28 02:21:16;;;;;;;15.57;2.57;;;;;;;;;;5072072;28;20020;-79
2021/03/28 02:23:47;;;;;;;9.47;2.00;;;;;;;;;;5072534;28;20468;-79
2021/03/28 02:26:22;;;;;;;15.87;2.83;;;;;;;;;;5071112;28;20021;-79
2021/03/28 02:28:57;;;;;;;15.57;2.70;;;;;;;;;;5071875;28;20089;-79
2021/03/28 02:31:28;;;;;;;12.60;2.77;;;;;;;;;;5072396;28;20028;-79
2021/03/28 02:33:53;;;;;;;14.33;2.63;;;;;;;;;;5072187;28;20044;-79
2021/03/28 02:36:36;;;;;;;17.07;2.40;;;;;;;;;;5072710;28;20340;-79
2021/03/28 02:39:21;;;;;;;14.17;2.20;;;;;;;;;;5072299;28;20021;-79
2021/03/28 02:42:01;;;;;;;11.80;2.37;;;;;;;;;;5072350;28;20254;-79
2021/03/28 02:44:49;;;;;;;12.87;3.03;;;;;;;;;;5071259;28;20107;-79
2021/03/28 02:47:36;;;;;;;15.37;2.17;;;;;;;;;;5072176;28;20028;-79
2021/03/28 02:50:07;;;;;;;11.57;2.33;;;;;;;;;;5071050;28;20108;-79
2021/03/28 02:52:32;;;;;;;14.17;2.73;;;;;;;;;;5070809;28;20078;-79
2021/03/28 02:55:11;;;;;;;15.93;2.77;;;;;;;;;;5072345;28;20375;-79
2021/03/28 02:57:55;;;;;;;19.67;3.57;;;;;;;;;;5070289;28;20023;-79
2021/03/28 03:00:37;;;;;;;22.83;4.87;;;;;;;;;;5072198;28;20017;-79
2021/03/28 03:03:05;;;;;;;10.65;2.67;;;;;;;;;;5071174;28;20128;-79
2021/03/28 03:05:38;;;;;;;15.80;2.57;;;;;;;;;;5072113;28;20032;-79
2021/03/28 03:08:03;;;;;;;17.10;2.80;;;;;;;;;;5070950;28;20089;-79
2021/03/28 03:10:29;;;;;;;14.77;2.60;;;;;;;;;;5072017;28;20021;-79
2021/03/28 03:13:14;;;;;;;15.73;2.20;;;;;;;;;;5071790;28;20504;-79
2021/03/28 03:16:00;;;;;;;9.57;1.87;;;;;;;;;;5064863;28;20024;-79
2021/03/28 03:18:44;;;;;;;10.97;2.10;;;;;;;;;;5072021;28;20031;-79
2021/03/28 03:21:33;;;;;;;12.93;2.80;;;;;;;;;;5072512;28;20048;-79
2021/03/28 03:24:13;;;;;;;11.77;2.23;;;;;;;;;;5074244;28;20031;-79
2021/03/28 03:26:42;;;;;;;10.03;2.30;;;;;;;;;;5074298;28;20162;-80
2021/03/28 03:29:25;;;;;;;14.63;2.63;;;;;;;;;;5075652;28;20565;-79
2021/03/28 03:31:54;;;;;;;11.07;2.63;;;;;;;;;;5074359;28;20115;-79
2021/03/28 03:34:38;;;;;;;16.10;2.20;;;;;;;;;;5074256;28;20029;-79
2021/03/28 03:37:21;;;;;;;9.60;1.93;;;;;;;;;;5075344;28;20471;-79
2021/03/28 03:39:46;;;;;;;9.80;2.30;;;;;;;;;;5075418;28;20020;-79
2021/03/28 03:42:17;;;;;;;18.37;2.60;;;;;;;;;;5075301;28;20501;-79
2021/03/28 03:45:01;;;;;;;7.30;1.90;;;;;;;;;;5074112;28;20055;-79
2021/03/28 03:47:32;;;;;;;14.67;2.43;;;;;;;;;;5075183;28;20635;-79
2021/03/28 03:50:06;;;;;;;11.83;2.40;;;;;;;;;;5075397;28;20492;-79
2021/03/28 03:52:37;;;;;;;13.07;2.07;;;;;;;;;;5074943;28;20017;-79
2021/03/28 03:55:21;;;;;;;14.33;2.17;;;;;;;;;;5073683;28;20024;-79
2021/03/28 03:57:48;;;;;;;13.23;2.13;;;;;;;;;;5075418;28;20016;-79
2021/03/28 04:00:18;;;;;;;13.13;2.23;;;;;;;;;;5075125;28;20070;-79
2021/03/28 04:02:56;;;;;;;10.37;2.57;;;;;;;;;;5073663;28;20095;-79
2021/03/28 04:05:40;;;;;;;12.27;2.10;;;;;;;;;;5073976;28;20021;-79
2021/03/28 04:08:08;;;;;;;13.43;2.00;;;;;;;;;;5074902;28;20016;-79
2021/03/28 04:10:52;;;;;;;12.90;2.60;;;;;;;;;;5073261;28;20020;-79
2021/03/28 04:13:20;;;;;;;8.67;1.80;;;;;;;;;;5060625;28;20056;-79
2021/03/28 04:15:48;;;;;;;6.80;1.80;;;;;;;;;;5074981;28;20017;-79
2021/03/28 04:18:16;;;;;;;21.77;3.40;;;;;;;;;;5073380;28;20017;-79
2021/03/28 04:21:00;;;;;;;9.83;2.00;;;;;;;;;;5073530;28;20388;-79
2021/03/28 04:23:38;;;;;;;10.73;2.47;;;;;;;;;;5073113;28;20064;-79
2021/03/28 04:26:18;;;;;;;7.20;2.00;;;;;;;;;;5074575;28;20027;-80
2021/03/28 04:28:50;;;;;;;13.57;2.20;;;;;;;;;;5073088;28;20074;-79
2021/03/28 04:31:15;;;;;;;8.80;1.77;;;;;;;;;;5069743;28;20016;-79
2021/03/28 04:33:47;;;;;;;14.00;2.17;;;;;;;;;;5073679;28;20067;-79
2021/03/28 04:36:28;;;;;;;19.63;2.60;;;;;;;;;;5073132;28;20033;-79
2021/03/28 04:39:03;;;;;;;15.07;2.50;;;;;;;;;;5072981;28;20103;-79
2021/03/28 04:41:28;;;;;;;14.63;2.20;;;;;;;;;;5074421;28;20023;-79
2021/03/28 04:44:16;;;;;;;9.33;2.57;;;;;;;;;;5074273;28;20012;-79
2021/03/28 04:47:02;;;;;;;14.50;2.37;;;;;;;;;;5074222;28;20043;-79
2021/03/28 04:49:45;;;;;;;10.33;2.10;;;;;;;;;;5062902;28;20067;-79
2021/03/28 04:52:23;;;;;;;13.50;3.10;;;;;;;;;;5072790;28;20029;-79
2021/03/28 04:55:07;;;;;;;9.83;2.17;;;;;;;;;;5073704;28;20017;-79
2021/03/28 04:57:51;;;;;;;11.87;2.23;;;;;;;;;;5072597;28;20016;-79
2021/03/28 05:00:19;;;;;;;15.33;3.03;;;;;;;;;;5074052;28;20016;-80
2021/03/28 05:03:01;;;;;;;14.60;3.07;;;;;;;;;;5073933;28;20012;-79
2021/03/28 05:05:55;;;;;;;13.05;2.72;;;;;;;;;;5073950;28;20024;-79
2021/03/28 05:08:39;;;;;;;12.13;2.30;;;;;;;;;;5053205;28;20103;-79
2021/03/28 05:11:24;;;;;;;10.27;2.60;;;;;;;;;;5072312;28;20013;-79
2021/03/28 05:13:58;;;;;;;7.70;2.00;;;;;;;;;;5073695;28;20680;-79
2021/03/28 05:16:27;;;;;;;26.63;8.37;;;;;;;;;;5072242;28;20075;-79
2021/03/28 05:19:10;;;;;;;16.30;2.43;;;;;;;;;;5073845;28;20417;-79
2021/03/28 05:21:51;;;;;;;17.63;3.00;;;;;;;;;;5073304;28;20020;-79
2021/03/28 05:24:28;;;;;;;13.67;2.47;;;;;;;;;;5073335;28;20023;-79
2021/03/28 05:27:21;;;;;;;12.40;2.60;;;;;;;;;;5060689;28;20020;-79
2021/03/28 05:29:46;;;;;;;12.97;2.87;;;;;;;;;;5073059;28;20028;-79
2021/03/28 05:32:14;;;;;;;10.00;3.00;;;;;;;;;;5073186;28;20477;-79
2021/03/28 05:34:45;;;;;;;13.70;2.57;;;;;;;;;;5071931;28;20012;-79
2021/03/28 05:37:19;;;;;;;14.77;2.13;;;;;;;;;;5073104;28;20013;-79
2021/03/28 05:39:56;;;;;;;10.23;2.30;;;;;;;;;;5072057;28;20021;-79
2021/03/28 05:42:25;;;;;;;15.00;2.50;;;;;;;;;;5072929;28;20008;-80
2021/03/28 05:44:50;;;;;;;17.17;2.97;;;;;;;;;;5070717;28;20028;-79
2021/03/28 05:47:42;;;;;;;12.26;2.58;;;;;;;;;;5071827;28;20023;-79
2021/03/28 05:50:10;;;;;;;10.90;2.75;;;;;;;;;;5073134;28;20033;-79
2021/03/28 05:52:38;;;;;;;12.83;2.73;;;;;;;;;;5071589;28;20020;-79
2021/03/28 05:55:22;;;;;;;15.77;2.87;;;;;;;;;;5072726;28;20043;-79
2021/03/28 05:58:06;;;;;;;12.53;3.03;;;;;;;;;;5072676;28;20095;-79
2021/03/28 06:00:46;;;;;;;13.67;3.07;;;;;;;;;;5072813;28;20020;-79
2021/03/28 06:03:14;;;;;;;11.73;2.53;;;;;;;;;;5072882;28;20024;-79
2021/03/28 06:05:42;;;;;;;14.60;2.87;;;;;;;;;;5071049;28;20035;-79
2021/03/28 06:08:08;;;;;;;16.30;2.93;;;;;;;;;;5072731;28;20020;-79
2021/03/28 06:10:33;;;;;;;14.73;3.37;;;;;;;;;;5072671;28;20027;-79
2021/03/28 06:13:06;;;;;;;12.23;3.03;;;;;;;;;;5071203;28;20096;-79
2021/03/28 06:15:54;;;;;;;17.50;3.13;;;;;;;;;;5073095;28;20070;-79
2021/03/28 06:18:49;;;;;;;17.67;3.30;;;;;;;;;;5072297;28;20025;-79
2021/03/28 06:21:23;;;;;;;16.87;3.30;;;;;;;;;;5054217;28;20032;-79
2021/03/28 06:23:51;;;;;;;15.37;3.07;;;;;;;;;;5072392;28;20012;-79
2021/03/28 06:26:16;;;;;;;10.73;2.80;;;;;;;;;;5072571;28;20013;-79
2021/03/28 06:29:04;;;;;;;18.93;3.40;;;;;;;;;;5072658;28;20089;-79
2021/03/28 06:31:29;;;;;;;14.33;3.20;;;;;;;;;;5071140;28;20514;-79
2021/03/28 06:34:00;;;;;;;11.77;3.10;;;;;;;;;;5072358;28;20017;-79
2021/03/28 06:36:44;;;;;;;8.03;2.50;;;;;;;;;;5072623;28;20012;-79
2021/03/28 06:39:28;;;;;;;15.70;3.00;;;;;;;;;;5071316;28;20031;-79
2021/03/28 06:42:12;;;;;;;10.43;2.87;;;;;;;;;;5070982;28;20023;-79
2021/03/28 06:44:40;;;;;;;14.37;3.63;;;;;;;;;;5071364;28;20028;-79
2021/03/28 06:47:05;;;;;;;9.50;3.73;;;;;;;;;;5070699;28;20557;-79
2021/03/28 06:49:46;;;;;;;23.73;3.50;;;;;;;;;;5070676;28;20078;-80
2021/03/28 06:52:11;;;;;;;14.10;3.43;;;;;;;;;;5071936;28;20472;-79
2021/03/28 06:54:36;;;;;;;10.80;3.18;;;;;;;;;;5070802;28;20024;-79
2021/03/28 06:57:07;;;;;;;18.70;3.73;;;;;;;;;;5074597;28;20530;-79
2021/03/28 06:59:52;;;;;;;16.33;4.13;;;;;;;;;;5076336;28;20476;-79
2021/03/28 07:02:27;;;;;;;18.47;3.83;;;;;;;;;;5076065;28;20028;-79
2021/03/28 07:05:09;;;;;;;17.17;3.93;;;;;;;;;;5076349;28;20087;-80
2021/03/28 07:07:54;;;;;;;14.80;3.65;;;;;;;;;;5076007;28;20021;-79
2021/03/28 07:10:40;;;;;;;17.20;4.37;;;;;;;;;;5075057;28;20040;-79
2021/03/28 07:13:08;;;;;;;13.07;3.47;;;;;;;;;;5061881;28;20041;-79
2021/03/28 07:15:39;;;;;;;12.97;3.70;;;;;;;;;;5074250;28;20095;-79
2021/03/28 07:18:16;;;;;;;15.33;3.37;;;;;;;;;;5075790;28;20013;-79
2021/03/28 07:20:58;;;;;;;25.87;4.10;;;;;;;;;;5075598;28;20024;-79
2021/03/28 07:23:32;;;;;;;19.90;3.45;;;;;;;;;;5061912;28;20024;-79
2021/03/28 07:26:06;;;;;;;18.83;4.27;;;;;;;;;;5074416;28;20640;-79
2021/03/28 07:29:01;;;;;;;16.30;3.67;;;;;;;;;;5074335;28;20436;-79
2021/03/28 07:31:35;;;;;;;20.07;3.90;;;;;;;;;;5074408;28;20044;-79
2021/03/28 07:34:06;;;;;;;15.87;4.20;;;;;;;;;;5075340;28;20015;-79
2021/03/28 07:36:41;;;;;;;15.67;4.43;;;;;;;;;;5066811;28;20012;-79
2021/03/28 07:39:26;;;;;;;17.53;3.47;;;;;;;;;;5075528;28;20043;-79
2021/03/28 07:42:09;;;;;;;11.40;3.37;;;;;;;;;;5075380;28;20075;-79
2021/03/28 07:44:34;;;;;;;12.63;3.70;;;;;;;;;;5073472;28;20379;-79
2021/03/28 07:47:06;;;;;;;19.77;4.33;;;;;;;;;;5073987;28;20032;-79
2021/03/28 07:49:49;;;;;;;14.43;3.43;;;;;;;;;;5075371;28;20017;-79
2021/03/28 07:52:23;;;;;;;20.53;4.20;;;;;;;;;;5075164;28;20021;-79
2021/03/28 07:55:07;;;;;;;21.13;3.70;;;;;;;;;;5073874;28;20013;-79
2021/03/28 07:57:41;;;;;;;15.93;3.73;;;;;;;;;;5075177;28;20092;-79
2021/03/28 08:00:09;;;;;;;14.57;4.80;;;;;;;;;;5073705;28;20107;-79
2021/03/28 08:02:35;;;;;;;20.90;4.57;;;;;;;;;;5073111;28;20101;-79
2021/03/28 08:05:12;;;;;;;16.70;3.93;;;;;;;;;;5073867;28;20066;-79
2021/03/28 08:07:46;;;;;;;19.05;3.83;;;;;;;;;;5073797;28;20062;-79
2021/03/28 08:10:31;;;;;;;18.73;3.53;;;;;;;;;;5074851;28;20379;-79
2021/03/28 08:13:05;;;;;;;18.45;4.18;;;;;;;;;;5074765;28;20029;-79
2021/03/28 08:15:39;;;;;;;17.45;3.50;;;;;;;;;;5072138;28;20020;-79
2021/03/28 08:18:15;;;;;;;14.77;3.47;;;;;;;;;;5073013;28;20024;-79
2021/03/28 08:20:51;;;;;;;18.80;3.63;;;;;;;;;;5073251;28;20376;-79
2021/03/28 08:23:30;;;;;;;22.70;4.35;;;;;;;;;;5070448;28;20099;-79
2021/03/28 08:26:13;;;;;;;22.67;4.27;;;;;;;;;;5073092;28;20031;-79
2021/03/28 08:28:57;;;;;;;14.27;3.53;;;;;;;;;;5064843;28;20050;-79
2021/03/28 08:31:41;;;;;;;19.58;3.55;;;;;;;;;;5074350;28;20016;-79
2021/03/28 08:34:21;;;;;;;16.85;2.97;;;;;;;;;;5074461;28;20492;-79
2021/03/28 08:36:58;;;;;;;17.45;3.50;;;;;;;;;;5053469;28;20032;-79
2021/03/28 08:39:26;;;;;;;16.90;3.17;;;;;;;;;;5072581;28;20046;-79
2021/03/28 08:42:02;;;;;;;12.95;3.25;;;;;;;;;;5073637;28;20089;-79
2021/03/28 08:44:40;;;;;;;15.85;4.28;;;;;;;;;;5074988;28;20106;-79
2021/03/28 08:47:11;;;;;;;14.32;3.08;;;;;;;;;;5074093;28;20073;-79
2021/03/28 08:49:43;;;;;;;20.67;3.50;;;;;;;;;;5067899;28;20123;-79
2021/03/28 08:52:23;;;;;;;15.90;2.90;;;;;;;;;;5073997;28;20070;-79
2021/03/28 08:55:02;;;;;;;12.40;2.10;;;;;;;;;;5073330;28;20021;-79
2021/03/28 08:57:30;;;;;;;14.65;2.83;;;;;;;;;;5071811;28;20028;-79
2021/03/28 09:00:05;;;;;;;24.48;2.90;;;;;;;;;;5071355;28;20051;-79
2021/03/28 09:02:48;;;;;;;15.10;3.10;;;;;;;;;;5070954;28;20078;-78
2021/03/28 09:05:20;;;;;;;18.40;2.63;;;;;;;;;;5072029;28;20472;-79
2021/03/28 09:08:08;;;;;;;13.65;1.88;;;;;;;;;;5072015;28;20031;-79
2021/03/28 09:10:40;;;;;;;12.32;1.92;;;;;;;;;;5072396;28;20116;-79
2021/03/28 09:13:06;;;;;;;11.10;2.33;;;;;;;;;;5073202;28;20050;-79
2021/03/28 09:15:43;;;;;;;11.65;2.05;;;;;;;;;;5073562;28;20023;-79
2021/03/28 09:18:14;;;;;;;15.60;2.95;;;;;;;;;;5071876;28;20491;-79
2021/03/28 09:21:11;;;;;;;15.23;2.53;;;;;;;;;;5073326;28;20020;-79
2021/03/28 09:23:43;;;;;;;14.18;2.88;;;;;;;;;;5059890;28;20066;-79
2021/03/28 09:26:08;;;;;;;11.43;2.13;;;;;;;;;;5071799;28;20043;-79
2021/03/28 09:28:39;;;;;;;14.18;2.53;;;;;;;;;;5073795;28;20016;-79
2021/03/28 09:31:09;;;;;;;16.23;2.00;;;;;;;;;;5071969;28;20062;-79
2021/03/28 09:33:45;;;;;;;15.10;2.30;;;;;;;;;;5073226;28;20666;-79
2021/03/28 09:36:13;;;;;;;15.27;2.05;;;;;;;;;;5073000;28;20017;-79
2021/03/28 09:38:41;;;;;;;14.43;1.95;;;;;;;;;;5068804;28;20418;-79
2021/03/28 09:41:09;;;;;;;12.23;2.20;;;;;;;;;;5071882;28;20016;-79
2021/03/28 09:43:52;;;;;;;10.00;1.48;;;;;;;;;;5073085;28;20021;-79
2021/03/28 09:46:28;;;;;;;13.07;1.98;;;;;;;;;;5071761;28;20020;-79
2021/03/28 09:49:12;;;;;;;11.30;1.60;;;;;;;;;;5069976;28;20024;-79
2021/03/28 09:51:56;;;;;;;10.85;1.63;;;;;;;;;;5067166;28;20020;-79
2021/03/28 09:54:29;;;;;;;9.90;1.60;;;;;;;;;;5069518;28;20024;-79
2021/03/28 09:57:05;;;;;;;8.82;1.55;;;;;;;;;;5069838;28;20027;-78
2021/03/28 09:59:30;;;;;;;9.10;0.93;;;;;;;;;;5070371;28;20020;-78
2021/03/28 10:01:58;;;;;;;6.95;1.40;;;;;;;;;;5072015;28;20579;-79
2021/03/28 10:04:30;;;;;;;9.57;1.42;;;;;;;;;;5070717;28;20099;-79
2021/03/28 10:07:00;;;;;;;6.65;1.08;;;;;;;;;;5072887;28;20017;-79
2021/03/28 10:09:37;;;;;;;9.15;1.23;;;;;;;;;;5072492;28;20020;-79
2021/03/28 10:12:09;;;;;;;15.82;1.60;;;;;;;;;;5071319;28;20016;-79
2021/03/28 10:14:34;;;;;;;;;;;;;;;;;;5073067;28;20030;-79
2021/03/28 10:17:23;;;;;;;7.32;1.70;;;;;;;;;;5072806;28;19905;-79
2021/03/28 10:19:53;;;;;;;9.48;1.70;;;;;;;;;;5072065;28;20329;-79
2021/03/28 10:22:21;;;;;;;11.32;1.70;;;;;;;;;;5071418;28;20116;-79
2021/03/28 10:25:15;;;;;;;8.52;1.48;;;;;;;;;;5072060;28;20012;-79
2021/03/28 10:27:51;;;;;;;7.47;1.35;;;;;;;;;;5047251;28;20029;-79
2021/03/28 10:30:20;;;;;;;9.95;1.45;;;;;;;;;;5070198;28;20040;-79
2021/03/28 10:32:53;;;;;;;11.65;2.15;;;;;;;;;;5072232;28;20021;-79
2021/03/28 10:35:18;;;;;;;6.13;1.17;;;;;;;;;;5072223;28;20020;-78
2021/03/28 10:38:02;;;;;;;9.65;1.20;;;;;;;;;;5071189;28;20081;-78
2021/03/28 10:40:33;;;;;;;11.30;2.22;;;;;;;;;;5072164;28;20460;-79
2021/03/28 10:43:08;;;;;;;7.72;2.10;;;;;;;;;;5072100;28;20091;-79
2021/03/28 10:45:33;;;;;;;8.15;1.50;;;;;;;;;;5067929;28;20031;-79
2021/03/28 10:48:07;;;;;;;11.35;1.50;;;;;;;;;;5072402;28;20016;-79
2021/03/28 10:50:32;;;;;;;14.38;2.63;;;;;;;;;;5071880;28;20028;-79
2021/03/28 10:53:25;;;;;;;12.54;2.66;;;;;;;;;;5072234;28;20088;-78
2021/03/28 10:55:57;;;;;;;6.70;1.55;;;;;;;;;;5072078;28;20025;-78
2021/03/28 10:58:37;;;;;;;10.98;1.75;;;;;;;;;;5070811;28;20441;-78
2021/03/28 11:01:08;;;;;;;7.47;1.55;;;;;;;;;;5072166;28;20020;-78
2021/03/28 11:03:40;;;;;;;10.85;1.30;;;;;;;;;;5070878;28;20027;-79
2021/03/28 11:06:11;;;;;;;12.57;2.10;;;;;;;;;;5071900;28;20391;-79
2021/03/28 11:08:49;;;;;;;8.80;1.95;;;;;;;;;;5072121;28;20107;-78
2021/03/28 11:11:33;;;;;;;10.57;1.63;;;;;;;;;;5070686;28;20012;-78
2021/03/28 11:14:18;;;;;;;10.68;1.83;;;;;;;;;;5070792;28;20024;-79
2021/03/28 11:17:02;;;;;;;8.00;1.33;;;;;;;;;;5072528;28;20005;-79
2021/03/28 11:19:44;;;;;;;8.07;1.48;;;;;;;;;;5071833;28;20028;-79
2021/03/28 11:22:27;;;;;;;12.10;1.90;;;;;;;;;;5072014;28;20067;-79
2021/03/28 11:25:11;;;;;;;9.60;1.63;;;;;;;;;;5071489;28;20047;-78
2021/03/28 11:27:55;;;;;;;12.95;2.13;;;;;;;;;;5064811;28;20103;-79
2021/03/28 11:30:39;;;;;;;9.80;1.58;;;;;;;;;;5067383;28;20020;-79
2021/03/28 11:33:23;;;;;;;10.68;1.80;;;;;;;;;;5066967;28;20510;-78
2021/03/28 11:35:54;;;;;;;11.98;2.00;;;;;;;;;;5069702;28;20027;-79
2021/03/28 11:38:22;;;;;;;11.07;1.95;;;;;;;;;;5062666;28;20077;-78
2021/03/28 11:40:50;;;;;;;9.65;1.88;;;;;;;;;;5069500;28;20722;-79
2021/03/28 11:43:33;;;;;;;12.38;1.92;;;;;;;;;;5064702;28;20414;-79
2021/03/28 11:45:58;;;;;;;;;;;;;;;;;;5068453;28;20016;-79
2021/03/28 11:48:25;;;;;;;11.88;2.58;;;;;;;;;;5073799;28;19987;-78
2021/03/28 11:50:51;;;;;;;13.13;2.13;;;;;;;;;;5072692;28;20752;-78
2021/03/28 11:53:22;;;;;;;9.40;1.65;;;;;;;;;;5074473;28;20082;-78
2021/03/28 11:55:50;;;;;;;12.00;1.70;;;;;;;;;;5072985;28;20016;-79
2021/03/28 11:58:15;;;;;;;8.18;1.10;;;;;;;;;;5074732;28;20021;-79
2021/03/28 12:00:40;;;;;;;13.20;2.56;;;;;;;;;;5073256;28;20024;-79
2021/03/28 12:03:21;;;;;;;9.82;2.40;;;;;;;;;;5073908;28;20020;-78
2021/03/28 12:05:49;;;;;;;12.70;1.70;;;;;;;;;;5074371;28;20104;-79
2021/03/28 12:08:14;;;;;;;13.50;1.77;;;;;;;;;;5074342;28;20410;-79
2021/03/28 12:10:40;;;;;;;12.10;2.35;;;;;;;;;;5073424;28;20086;-79
2021/03/28 12:13:08;;;;;;;12.07;2.08;;;;;;;;;;5074023;28;20028;-79
2021/03/28 12:15:43;;;;;;;7.38;1.90;;;;;;;;;;5070988;28;20024;-79
2021/03/28 12:18:14;;;;;;;15.70;2.22;;;;;;;;;;5072778;28;20441;-79
2021/03/28 12:20:39;;;;;;;8.95;1.50;;;;;;;;;;5071560;28;20036;-79
2021/03/28 12:23:17;;;;;;;13.30;1.63;;;;;;;;;;5069051;28;20082;-79
2021/03/28 12:25:42;;;;;;;11.45;2.05;;;;;;;;;;5074571;28;20036;-79
2021/03/28 12:28:24;;;;;;;14.95;2.08;;;;;;;;;;5074118;28;20020;-79
2021/03/28 12:30:49;;;;;;;9.45;2.05;;;;;;;;;;5072212;28;20028;-79
2021/03/28 12:33:18;;;;;;;8.65;1.88;;;;;;;;;;5071585;28;20028;-78
2021/03/28 12:35:47;;;;;;;11.95;1.88;;;;;;;;;;5089250;28;20040;-79
2021/03/28 12:38:28;;;;;;;11.77;1.88;;;;;;;;;;5072868;28;20032;-79
2021/03/28 12:41:13;;;;;;;6.97;1.60;;;;;;;;;;5072131;28;20380;-79
2021/03/28 12:43:57;;;;;;;16.52;2.58;;;;;;;;;;5068177;28;20043;-79
2021/03/28 12:46:31;;;;;;;12.02;2.10;;;;;;;;;;5074220;28;20082;-79
2021/03/28 12:49:08;;;;;;;9.60;1.67;;;;;;;;;;5074127;28;20873;-79
2021/03/28 12:51:35;;;;;;;9.15;2.30;;;;;;;;;;5073794;28;20456;-79
2021/03/28 12:54:00;;;;;;;11.63;2.25;;;;;;;;;;5072597;28;20033;-79
2021/03/28 12:56:29;;;;;;;10.32;2.72;;;;;;;;;;5073848;28;20031;-78
2021/03/28 12:58:54;;;;;;;10.95;2.47;;;;;;;;;;5072137;28;20024;-79
2021/03/28 13:01:34;;;;;;;13.05;2.88;;;;;;;;;;5073989;28;20096;-79
2021/03/28 13:04:08;;;;;;;18.42;2.40;;;;;;;;;;5073752;28;20025;-79
2021/03/28 13:06:35;;;;;;;13.77;2.63;;;;;;;;;;5073399;28;20494;-79
2021/03/28 13:09:02;;;;;;;12.63;2.17;;;;;;;;;;5072433;28;20185;-79
2021/03/28 13:11:39;;;;;;;12.60;2.55;;;;;;;;;;5072283;28;20540;-79
2021/03/28 13:14:06;;;;;;;9.02;2.00;;;;;;;;;;5072418;28;20472;-79
2021/03/28 13:16:32;;;;;;;13.82;1.80;;;;;;;;;;5073535;28;20024;-79
2021/03/28 13:18:58;;;;;;;11.88;2.20;;;;;;;;;;5072258;28;20460;-79
2021/03/28 13:21:25;;;;;;;15.27;2.65;;;;;;;;;;5071899;28;20017;-79
2021/03/28 13:24:04;;;;;;;8.02;1.90;;;;;;;;;;5072184;28;20032;-79
2021/03/28 13:26:31;;;;;;;13.05;2.38;;;;;;;;;;5073367;28;20020;-79
2021/03/28 13:29:08;;;;;;;11.13;1.92;;;;;;;;;;5068946;28;20464;-79
2021/03/28 13:31:33;;;;;;;10.90;2.30;;;;;;;;;;5060332;28;20039;-80
2021/03/28 13:34:06;;;;;;;11.35;2.40;;;;;;;;;;5071544;28;20017;-80
2021/03/28 13:36:37;;;;;;;12.65;2.50;;;;;;;;;;5073061;28;20008;-79
2021/03/28 13:39:08;;;;;;;13.23;2.53;;;;;;;;;;5073180;28;20023;-79
2021/03/28 13:41:35;;;;;;;13.77;2.40;;;;;;;;;;5073367;28;20070;-79
2021/03/28 13:44:05;;;;;;;9.10;1.83;;;;;;;;;;5072951;28;20156;-79
2021/03/28 13:46:30;;;;;;;11.93;2.50;;;;;;;;;;5071395;28;20055;-79
2021/03/28 13:49:04;;;;;;;11.10;2.53;;;;;;;;;;5072640;28;20036;-79
2021/03/28 13:51:31;;;;;;;13.55;2.15;;;;;;;;;;5071573;28;20021;-79
2021/03/28 13:54:04;;;;;;;12.57;2.85;;;;;;;;;;5072921;28;20020;-79
2021/03/28 13:56:38;;;;;;;9.68;1.90;;;;;;;;;;5071652;28;20016;-79
2021/03/28 13:59:07;;;;;;;13.52;2.55;;;;;;;;;;5071292;28;20058;-79
2021/03/28 14:01:41;;;;;;;15.60;2.65;;;;;;;;;;5071418;28;20036;-79
2021/03/28 14:04:24;;;;;;;19.08;2.92;;;;;;;;;;5070430;28;20103;-79
2021/03/28 14:07:12;;;;;;;12.07;2.25;;;;;;;;;;5067213;28;20081;-79
2021/03/28 14:09:40;;;;;;;11.18;2.38;;;;;;;;;;5070411;28;20032;-79
2021/03/28 14:12:17;;;;;;;11.25;2.25;;;;;;;;;;5068170;28;20514;-78
2021/03/28 14:14:42;;;;;;;16.48;2.80;;;;;;;;;;5067453;28;20051;-78
2021/03/28 14:17:16;;;;;;;11.20;2.92;;;;;;;;;;5063038;28;20016;-78
2021/03/28 14:19:42;;;;;;;9.82;2.42;;;;;;;;;;5071187;28;20074;-78
2021/03/28 14:22:28;;;;;;;10.00;2.40;;;;;;;;;;5072286;28;20442;-79
2021/03/28 14:24:55;;;;;;;12.45;1.92;;;;;;;;;;5071083;28;20032;-79
2021/03/28 14:27:32;;;;;;;7.07;2.00;;;;;;;;;;5068991;28;20444;-79
2021/03/28 14:29:59;;;;;;;13.43;2.58;;;;;;;;;;5069298;28;20589;-78
2021/03/28 14:32:28;;;;;;;12.77;2.13;;;;;;;;;;5069751;28;20023;-78
2021/03/28 14:34:56;;;;;;;14.13;2.88;;;;;;;;;;5067775;28;20024;-78
2021/03/28 14:37:24;;;;;;;15.90;2.90;;;;;;;;;;5068549;28;20021;-78
2021/03/28 14:40:08;;;;;;;13.75;2.33;;;;;;;;;;5064854;28;20024;-78
2021/03/28 14:42:43;;;;;;;9.82;2.42;;;;;;;;;;5068118;28;20116;-78
2021/03/28 14:45:09;;;;;;;14.40;2.72;;;;;;;;;;5063552;28;20025;-78
2021/03/28 14:47:37;;;;;;;15.65;2.13;;;;;;;;;;5067468;28;20016;-78
2021/03/28 14:50:08;;;;;;;15.93;2.50;;;;;;;;;;5065604;28;20021;-78
2021/03/28 14:52:39;;;;;;;9.38;2.13;;;;;;;;;;5063556;28;20023;-78
2021/03/28 14:55:16;;;;;;;9.63;1.90;;;;;;;;;;5060582;28;20025;-78
2021/03/28 14:57:45;;;;;;;11.63;2.03;;;;;;;;;;5069094;28;20024;-78
2021/03/28 15:00:11;;;;;;;15.45;2.17;;;;;;;;;;5060516;28;20518;-78
2021/03/28 15:02:43;;;;;;;14.27;2.50;;;;;;;;;;5062611;28;20017;-78
2021/03/28 15:05:27;;;;;;;9.13;1.90;;;;;;;;;;5061521;28;20025;-79
2021/03/28 15:08:00;;;;;;;9.20;1.95;;;;;;;;;;5065257;28;20032;-78
2021/03/28 15:10:44;;;;;;;10.40;2.40;;;;;;;;;;5064708;28;20096;-79
2021/03/28 15:13:21;;;;;;;9.80;2.40;;;;;;;;;;5064118;28;20029;-79
2021/03/28 15:16:05;;;;;;;8.02;2.60;;;;;;;;;;5063802;28;20572;-78
2021/03/28 15:18:42;;;;;;;14.60;2.70;;;;;;;;;;5061654;28;20016;-78